Time;durP1;ratioP1;P1;durP2;ratioP2;P2;SDS_P1;SDS_P2;PMS_P1;PMS_P2;Temp;Humidity;BMP_temperature;BMP_pressure;BME280_temperature;BME280_humidity;BME280_pressure;Samples;Min_cycle;Max_cycle;Signal;HPM_P1;HPM_P2
2023/08/16 00:00:14;;;;;;;6.82;3.78;;;16.10;99.90;;;;;;4973716;28;20130;-73
2023/08/16 00:02:40;;;;;;;7.35;3.83;;;16.20;99.90;;;;;;4960032;28;20054;-74
2023/08/16 00:05:06;;;;;;;8.00;3.97;;;16.10;99.90;;;;;;4970736;28;20046;-73
2023/08/16 00:07:34;;;;;;;6.18;3.53;;;16.20;99.90;;;;;;4971594;28;20201;-73
2023/08/16 00:10:00;;;;;;;4.72;3.13;;;16.10;99.90;;;;;;4976328;28;20031;-73
2023/08/16 00:12:26;;;;;;;7.22;3.90;;;16.10;99.90;;;;;;4966045;28;20049;-73
2023/08/16 00:14:54;;;;;;;7.38;4.55;;;16.10;99.90;;;;;;4973462;28;20054;-73
2023/08/16 00:17:20;;;;;;;6.18;3.22;;;16.10;99.90;;;;;;4963820;28;20598;-73
2023/08/16 00:19:46;;;;;;;8.55;3.40;;;16.10;99.90;;;;;;4964179;28;20130;-73
2023/08/16 00:22:11;;;;;;;9.07;3.85;;;16.10;99.90;;;;;;4965311;28;20050;-73
2023/08/16 00:24:37;;;;;;;6.32;3.72;;;16.10;99.90;;;;;;4970657;28;20365;-74
2023/08/16 00:27:03;;;;;;;6.60;2.95;;;16.00;99.90;;;;;;4969746;28;20456;-73
2023/08/16 00:29:28;;;;;;;6.72;3.55;;;16.10;99.90;;;;;;4968660;28;20057;-73
2023/08/16 00:31:54;;;;;;;6.43;3.40;;;16.10;99.90;;;;;;4968552;28;20531;-73
2023/08/16 00:34:20;;;;;;;5.68;3.20;;;16.10;99.90;;;;;;4971173;28;20488;-73
2023/08/16 00:36:45;;;;;;;6.88;3.45;;;16.00;99.90;;;;;;4970552;28;20492;-73
2023/08/16 00:39:11;;;;;;;6.60;3.35;;;16.00;99.90;;;;;;4968146;28;20146;-73
2023/08/16 00:41:37;;;;;;;6.65;3.90;;;16.00;99.90;;;;;;4973531;28;20050;-73
2023/08/16 00:44:06;;;;;;;7.75;3.45;;;16.00;99.90;;;;;;4950411;28;20065;-73
2023/08/16 00:46:32;;;;;;;7.10;3.30;;;15.90;99.90;;;;;;4970712;28;20044;-73
2023/08/16 00:48:58;;;;;;;7.18;3.28;;;15.90;99.90;;;;;;4946075;28;20057;-73
2023/08/16 00:51:24;;;;;;;7.82;3.55;;;15.90;99.90;;;;;;4962198;28;20042;-73
2023/08/16 00:53:50;;;;;;;12.73;4.90;;;15.90;99.90;;;;;;4972076;28;20489;-73
2023/08/16 00:56:16;;;;;;;7.95;5.30;;;15.90;99.90;;;;;;4966673;28;20058;-73
2023/08/16 00:58:43;;;;;;;6.60;4.40;;;15.90;99.90;;;;;;4950139;28;20134;-73
2023/08/16 01:01:10;;;;;;;5.65;3.40;;;15.90;99.90;;;;;;4962707;28;20050;-73
2023/08/16 01:03:36;;;;;;;8.45;4.28;;;15.90;99.90;;;;;;4965046;28;20609;-73
2023/08/16 01:06:03;;;;;;;;;;;15.80;99.90;;;;;;4964515;28;20157;-73
2023/08/16 01:08:29;;;;;;;6.45;3.60;;;15.70;99.90;;;;;;4962424;28;19924;-73
2023/08/16 01:11:12;;;;;;;8.52;3.88;;;15.70;99.90;;;;;;4979275;22;20055;-84
2023/08/16 01:14:17;;;;;;;8.07;4.03;;;15.60;99.90;;;;;;4968591;28;20043;-85
2023/08/16 01:16:48;;;;;;;7.22;4.32;;;15.70;99.90;;;;;;4969601;28;20120;-86
2023/08/16 01:19:27;;;;;;;6.03;3.92;;;15.60;99.90;;;;;;4972925;28;20050;-85
2023/08/16 01:22:23;;;;;;;7.82;3.92;;;15.70;99.90;;;;;;4966759;28;20054;-85
2023/08/16 01:25:14;;;;;;;7.40;4.55;;;15.60;99.90;;;;;;4961787;28;20062;-86
2023/08/16 01:27:42;;;;;;;7.93;4.15;;;15.60;99.90;;;;;;4956869;28;20042;-85
2023/08/16 01:30:11;;;;;;;10.63;4.82;;;15.60;99.90;;;;;;4966166;28;20046;-84
2023/08/16 01:32:38;;;;;;;6.53;3.60;;;15.70;99.90;;;;;;4959251;28;20038;-86
2023/08/16 01:35:08;;;;;;;8.18;3.90;;;15.70;99.90;;;;;;4976455;28;20050;-86
2023/08/16 01:37:34;;;;;;;8.27;4.20;;;15.60;99.90;;;;;;4958928;28;20069;-86
2023/08/16 01:40:05;;;;;;;7.55;4.20;;;15.60;99.90;;;;;;4958160;28;20066;-86
2023/08/16 01:42:34;;;;;;;6.47;4.10;;;15.50;99.90;;;;;;4960146;28;20129;-85
2023/08/16 01:45:19;;;;;;;7.75;3.97;;;15.50;99.90;;;;;;4975194;28;20042;-86
2023/08/16 01:47:56;;;;;;;10.18;4.60;;;15.40;99.90;;;;;;4947013;28;20108;-87
2023/08/16 01:50:40;;;;;;;8.60;4.35;;;15.40;99.90;;;;;;4989177;28;20088;-85
2023/08/16 01:53:16;;;;;;;8.77;4.50;;;15.40;99.90;;;;;;4975799;28;20062;-85
2023/08/16 01:55:50;;;;;;;8.63;4.22;;;15.30;99.90;;;;;;4973233;28;20039;-86
2023/08/16 01:58:19;;;;;;;6.85;4.40;;;15.30;99.90;;;;;;4963234;28;20046;-85
2023/08/16 02:01:04;;;;;;;8.43;4.85;;;15.40;99.90;;;;;;4954335;28;20042;-85
2023/08/16 02:03:31;;;;;;;7.50;4.45;;;15.20;99.90;;;;;;4957499;28;20042;-86
2023/08/16 02:05:57;;;;;;;8.43;4.13;;;15.20;99.90;;;;;;4954156;28;20102;-83
2023/08/16 02:08:25;;;;;;;9.40;3.90;;;15.20;99.90;;;;;;4961640;28;20047;-85
2023/08/16 02:10:51;;;;;;;6.43;4.22;;;15.20;99.90;;;;;;4975105;28;20058;-84
2023/08/16 02:13:16;;;;;;;8.20;4.10;;;15.20;99.90;;;;;;4974433;28;20509;-85
2023/08/16 02:15:57;;;;;;;7.70;4.20;;;15.10;99.90;;;;;;4960515;28;20047;-85
2023/08/16 02:18:23;;;;;;;6.30;3.97;;;15.10;99.90;;;;;;4957111;28;20105;-84
2023/08/16 02:20:54;;;;;;;7.82;4.25;;;15.10;99.90;;;;;;4956617;28;20138;-87
2023/08/16 02:23:23;;;;;;;6.70;3.80;;;15.10;99.90;;;;;;4964632;28;20046;-84
2023/08/16 02:25:51;;;;;;;8.85;4.10;;;15.10;99.90;;;;;;4958515;28;20054;-85
2023/08/16 02:28:20;;;;;;;9.40;4.40;;;15.10;99.90;;;;;;4967110;28;20143;-86
2023/08/16 02:31:12;;;;;;;7.18;4.43;;;15.10;99.90;;;;;;4966810;28;20059;-86
2023/08/16 02:33:37;;;;;;;10.63;5.43;;;15.10;99.90;;;;;;4981876;28;20066;-85
2023/08/16 02:36:09;;;;;;;13.38;4.72;;;15.10;99.90;;;;;;4963667;28;20046;-86
2023/08/16 02:38:50;;;;;;;7.22;4.40;;;15.10;99.90;;;;;;4971558;28;20085;-84
2023/08/16 02:41:18;;;;;;;6.65;4.93;;;15.10;99.90;;;;;;4967265;28;20061;-86
2023/08/16 02:43:46;;;;;;;7.43;4.85;;;15.10;99.90;;;;;;4974728;28;20048;-88
2023/08/16 02:46:14;;;;;;;11.65;4.80;;;15.10;99.90;;;;;;4977354;28;20062;-87
2023/08/16 02:48:46;;;;;;;12.65;4.07;;;15.10;99.90;;;;;;4974837;28;20046;-86
2023/08/16 02:51:18;;;;;;;7.28;5.03;;;15.10;99.90;;;;;;4976307;28;20549;-87
2023/08/16 02:53:46;;;;;;;8.15;3.88;;;15.10;99.90;;;;;;4993965;28;20054;-88
2023/08/16 02:56:15;;;;;;;11.25;4.57;;;15.10;99.90;;;;;;4990714;28;20023;-87
2023/08/16 02:58:43;;;;;;;10.80;5.22;;;15.10;99.90;;;;;;4973169;28;20369;-88
2023/08/16 03:01:19;;;;;;;6.90;4.40;;;15.00;99.90;;;;;;4981886;28;20045;-85
2023/08/16 03:03:50;;;;;;;6.30;4.07;;;15.00;99.90;;;;;;4987893;28;20101;-85
2023/08/16 03:06:18;;;;;;;8.77;4.70;;;15.00;99.90;;;;;;5000763;28;20046;-86
2023/08/16 03:08:47;;;;;;;5.63;3.90;;;14.90;99.90;;;;;;4971924;28;20074;-87
2023/08/16 03:11:13;;;;;;;7.30;4.22;;;15.00;99.90;;;;;;4988741;28;20057;-86
2023/08/16 03:13:42;;;;;;;8.63;4.10;;;14.90;99.90;;;;;;4990189;28;20042;-86
2023/08/16 03:16:10;;;;;;;6.53;3.72;;;14.90;99.90;;;;;;4979073;28;20053;-85
2023/08/16 03:18:38;;;;;;;9.88;4.20;;;14.80;99.90;;;;;;4987442;28;20074;-85
2023/08/16 03:21:07;;;;;;;6.30;4.28;;;14.80;99.90;;;;;;4981739;28;20195;-85
2023/08/16 03:23:38;;;;;;;6.75;4.05;;;14.80;99.90;;;;;;4960818;28;20054;-86
2023/08/16 03:26:04;;;;;;;8.55;3.75;;;14.90;99.90;;;;;;4964655;28;20043;-84
2023/08/16 03:28:30;;;;;;;10.00;4.38;;;14.80;99.90;;;;;;4981014;28;20046;-85
2023/08/16 03:30:58;;;;;;;7.07;4.05;;;14.80;99.90;;;;;;4965743;28;20069;-86
2023/08/16 03:33:24;;;;;;;7.00;4.00;;;14.80;99.90;;;;;;4963732;28;20105;-85
2023/08/16 03:35:55;;;;;;;5.95;3.95;;;14.70;99.90;;;;;;4963338;28;20053;-85
2023/08/16 03:38:28;;;;;;;8.60;4.20;;;14.70;99.90;;;;;;4983267;28;20066;-85
2023/08/16 03:40:56;;;;;;;10.20;3.75;;;14.70;99.90;;;;;;4968497;28;20061;-85
2023/08/16 03:43:22;;;;;;;5.13;3.75;;;14.70;99.90;;;;;;4978408;28;20038;-86
2023/08/16 03:45:48;;;;;;;6.47;4.18;;;14.70;99.90;;;;;;4969209;28;20030;-84
2023/08/16 03:48:14;;;;;;;8.98;4.32;;;14.60;99.90;;;;;;4965201;28;20062;-83
2023/08/16 03:50:47;;;;;;;5.63;3.90;;;14.60;99.90;;;;;;4983520;28;20526;-84
2023/08/16 03:53:15;;;;;;;10.65;4.13;;;14.60;99.90;;;;;;4976945;28;20054;-85
2023/08/16 03:55:41;;;;;;;7.18;4.13;;;14.60;99.90;;;;;;4980766;28;20127;-86
2023/08/16 03:58:07;;;;;;;7.07;4.30;;;14.50;99.90;;;;;;4975497;28;20103;-85
2023/08/16 04:00:32;;;;;;;7.90;4.28;;;14.60;99.90;;;;;;4979249;28;20434;-84
2023/08/16 04:03:09;;;;;;;7.55;3.80;;;14.50;99.90;;;;;;4982553;28;20084;-85
2023/08/16 04:05:40;;;;;;;8.05;3.92;;;14.50;99.90;;;;;;4979374;28;20043;-86
2023/08/16 04:08:11;;;;;;;6.65;3.90;;;14.50;99.90;;;;;;4978310;28;20047;-85
2023/08/16 04:10:44;;;;;;;7.82;4.03;;;14.50;99.90;;;;;;4959250;28;20067;-85
2023/08/16 04:13:13;;;;;;;7.10;4.07;;;14.50;99.90;;;;;;4977402;28;20213;-85
2023/08/16 04:15:41;;;;;;;6.20;3.67;;;14.40;99.90;;;;;;4984541;28;20050;-84
2023/08/16 04:18:12;;;;;;;6.72;3.60;;;14.50;99.90;;;;;;4979776;28;20065;-85
2023/08/16 04:20:48;;;;;;;7.70;3.85;;;14.40;99.90;;;;;;4974610;28;20039;-85
2023/08/16 04:23:17;;;;;;;7.65;4.00;;;14.50;99.90;;;;;;4975364;28;20423;-84
2023/08/16 04:25:43;;;;;;;7.20;3.67;;;14.40;99.90;;;;;;4972213;28;20038;-84
2023/08/16 04:28:08;;;;;;;5.55;3.95;;;14.40;99.90;;;;;;4961825;28;20141;-85
2023/08/16 04:30:37;;;;;;;6.18;3.90;;;14.40;99.90;;;;;;4960871;28;20061;-84
2023/08/16 04:33:03;;;;;;;7.97;3.88;;;14.40;99.90;;;;;;4960751;28;20042;-85
2023/08/16 04:35:31;;;;;;;5.47;3.53;;;14.40;99.90;;;;;;4972525;28;20043;-86
2023/08/16 04:38:04;;;;;;;7.70;4.05;;;14.40;99.90;;;;;;4955151;28;20047;-86
2023/08/16 04:40:30;;;;;;;5.60;3.67;;;14.40;99.90;;;;;;4960192;28;20530;-84
2023/08/16 04:42:56;;;;;;;5.95;3.70;;;14.40;99.90;;;;;;4974010;28;20039;-85
2023/08/16 04:45:24;;;;;;;8.48;3.90;;;14.40;99.90;;;;;;4957916;28;20047;-84
2023/08/16 04:47:57;;;;;;;6.07;3.33;;;14.40;99.90;;;;;;4962407;28;20050;-85
2023/08/16 04:50:26;;;;;;;6.05;4.25;;;14.40;99.90;;;;;;4956324;28;20140;-84
2023/08/16 04:52:52;;;;;;;9.02;4.10;;;14.40;99.90;;;;;;4979469;28;20318;-86
2023/08/16 04:55:18;;;;;;;6.28;3.63;;;14.40;99.90;;;;;;4975959;28;20043;-85
2023/08/16 04:57:49;;;;;;;6.93;4.20;;;14.40;99.90;;;;;;4978583;28;20038;-85
2023/08/16 05:00:16;;;;;;;8.40;3.88;;;14.40;99.90;;;;;;4973307;28;20063;-83
2023/08/16 05:02:41;;;;;;;6.63;3.58;;;14.40;99.90;;;;;;4980152;28;20175;-83
2023/08/16 05:05:10;;;;;;;8.45;4.10;;;14.40;99.90;;;;;;4973607;28;20082;-86
2023/08/16 05:07:39;;;;;;;6.68;3.90;;;14.50;99.90;;;;;;4976061;28;20108;-84
2023/08/16 05:10:07;;;;;;;5.97;3.95;;;14.50;99.90;;;;;;4978139;28;20046;-85
2023/08/16 05:12:32;;;;;;;6.53;3.90;;;14.60;99.90;;;;;;4976361;28;20121;-86
2023/08/16 05:14:58;;;;;;;9.00;4.50;;;14.60;99.90;;;;;;4964142;28;20112;-84
2023/08/16 05:17:30;;;;;;;8.30;3.97;;;14.60;99.90;;;;;;4972057;28;20193;-85
2023/08/16 05:19:56;;;;;;;6.00;3.55;;;14.60;99.90;;;;;;4971524;28;20082;-83
2023/08/16 05:22:24;;;;;;;7.32;4.18;;;14.60;99.90;;;;;;4977460;28;20097;-84
2023/08/16 05:24:50;;;;;;;5.78;3.72;;;14.70;99.90;;;;;;4977697;28;20578;-84
2023/08/16 05:27:16;;;;;;;6.25;4.35;;;14.70;99.90;;;;;;4958257;28;20055;-83
2023/08/16 05:29:44;;;;;;;6.10;4.35;;;14.70;99.90;;;;;;4977735;28;20102;-83
2023/08/16 05:32:15;;;;;;;7.55;3.95;;;14.80;99.90;;;;;;4974837;28;20548;-86
2023/08/16 05:34:41;;;;;;;5.55;3.63;;;14.80;99.90;;;;;;4959728;28;20047;-85
2023/08/16 05:37:09;;;;;;;6.28;4.18;;;15.00;99.90;;;;;;4973487;28;20042;-84
2023/08/16 05:39:37;;;;;;;8.15;4.20;;;15.00;99.90;;;;;;4959596;28;20070;-84
2023/08/16 05:42:08;;;;;;;4.88;3.50;;;15.00;99.90;;;;;;4974257;28;20035;-85
2023/08/16 05:44:34;;;;;;;7.90;4.18;;;15.10;99.90;;;;;;4973432;28;20038;-85
2023/08/16 05:47:00;;;;;;;7.03;4.85;;;15.10;99.90;;;;;;4975691;28;20050;-82
2023/08/16 05:49:28;;;;;;;6.65;3.70;;;15.20;99.90;;;;;;4955866;28;20051;-84
2023/08/16 05:51:56;;;;;;;7.32;3.80;;;15.20;99.90;;;;;;4973706;28;20235;-84
2023/08/16 05:54:25;;;;;;;8.60;4.28;;;15.30;99.90;;;;;;4971227;28;20682;-85
2023/08/16 05:56:53;;;;;;;6.15;4.28;;;15.40;99.90;;;;;;4975382;28;20359;-83
2023/08/16 05:59:21;;;;;;;6.30;3.63;;;15.40;99.90;;;;;;4975059;28;20043;-84
2023/08/16 06:01:47;;;;;;;6.03;3.53;;;15.60;99.90;;;;;;4955992;28;20046;-84
2023/08/16 06:04:14;;;;;;;7.35;3.97;;;15.50;99.90;;;;;;4957064;28;20128;-85
2023/08/16 06:06:39;;;;;;;7.90;4.03;;;15.50;99.90;;;;;;4972278;28;20134;-83
2023/08/16 06:09:08;;;;;;;9.48;4.03;;;15.60;99.90;;;;;;4972470;28;20043;-83
2023/08/16 06:11:34;;;;;;;8.60;4.43;;;15.70;99.90;;;;;;4971112;28;20062;-84
2023/08/16 06:14:00;;;;;;;9.43;4.30;;;15.70;99.90;;;;;;4977152;28;20051;-86
2023/08/16 06:16:26;;;;;;;8.52;4.13;;;15.80;99.90;;;;;;4973677;28;20321;-85
2023/08/16 06:18:54;;;;;;;6.63;3.67;;;15.80;99.90;;;;;;4971411;28;20223;-84
2023/08/16 06:21:28;;;;;;;9.40;4.18;;;15.90;99.90;;;;;;4977438;28;20046;-84
2023/08/16 06:23:56;;;;;;;9.82;4.25;;;15.90;99.90;;;;;;4948566;28;20190;-83
2023/08/16 06:26:22;;;;;;;13.68;5.65;;;16.00;99.90;;;;;;4971732;28;20122;-82
2023/08/16 06:28:48;;;;;;;;;;;16.00;99.90;;;;;;4970494;28;20576;-84
2023/08/16 06:31:15;;;;;;;9.15;4.18;;;16.10;99.90;;;;;;4969286;28;19941;-84
2023/08/16 06:33:41;;;;;;;5.70;3.13;;;16.10;99.90;;;;;;4956961;28;20047;-84
2023/08/16 06:36:10;;;;;;;6.30;3.03;;;16.20;99.90;;;;;;4951153;28;20050;-84
2023/08/16 06:38:38;;;;;;;6.35;2.95;;;16.30;99.90;;;;;;4973682;28;20485;-83
2023/08/16 06:41:03;;;;;;;7.30;2.95;;;16.40;99.90;;;;;;4968542;28;20591;-84
2023/08/16 06:43:29;;;;;;;5.10;2.80;;;16.30;99.90;;;;;;4974141;28;20103;-85
2023/08/16 06:45:57;;;;;;;7.40;3.65;;;16.40;99.90;;;;;;4971745;28;20047;-84
2023/08/16 06:48:23;;;;;;;5.40;2.90;;;16.60;99.90;;;;;;4972202;28;20098;-83
2023/08/16 06:50:56;;;;;;;5.43;2.78;;;16.60;99.90;;;;;;4971459;28;20066;-85
2023/08/16 06:53:22;;;;;;;5.72;2.75;;;16.60;99.90;;;;;;4961240;28;20093;-85
2023/08/16 06:55:55;;;;;;;7.70;3.53;;;16.70;99.90;;;;;;4975705;28;20046;-84
2023/08/16 06:58:21;;;;;;;4.63;2.65;;;16.80;99.90;;;;;;4962083;28;20410;-85
2023/08/16 07:00:49;;;;;;;6.05;2.30;;;16.90;99.90;;;;;;4967494;28;20049;-86
2023/08/16 07:03:16;;;;;;;4.70;2.17;;;17.00;99.90;;;;;;4967875;28;20113;-86
2023/08/16 07:05:44;;;;;;;5.85;2.00;;;17.00;99.90;;;;;;4971783;28;20102;-86
2023/08/16 07:08:09;;;;;;;4.88;2.58;;;17.10;99.90;;;;;;4975007;28;20066;-84
2023/08/16 07:10:35;;;;;;;3.85;1.65;;;17.30;99.90;;;;;;4950560;28;20532;-85
2023/08/16 07:13:02;;;;;;;4.15;1.85;;;17.40;99.90;;;;;;4972471;28;20046;-87
2023/08/16 07:15:28;;;;;;;7.35;1.92;;;17.40;99.90;;;;;;4974463;28;20039;-84
2023/08/16 07:17:54;;;;;;;;;;;17.50;99.90;;;;;;4970111;28;20039;-85
2023/08/16 07:20:20;;;;;;;3.20;1.83;;;17.60;99.90;;;;;;4964713;28;19932;-86
2023/08/16 07:22:45;;;;;;;3.10;1.83;;;17.70;99.90;;;;;;4951119;28;20053;-86
2023/08/16 07:25:16;;;;;;;3.63;1.65;;;17.80;99.90;;;;;;4952898;28;20054;-88
2023/08/16 07:27:42;;;;;;;9.25;2.10;;;17.90;99.90;;;;;;4970202;28;20043;-86
2023/08/16 07:30:11;;;;;;;5.28;2.00;;;17.90;99.90;;;;;;4953766;28;20414;-86
2023/08/16 07:32:37;;;;;;;5.78;2.00;;;18.00;99.90;;;;;;4952474;28;20043;-87
2023/08/16 07:35:05;;;;;;;4.28;2.05;;;18.10;99.90;;;;;;4952324;28;20180;-86
2023/08/16 07:37:35;;;;;;;3.47;2.30;;;18.20;99.90;;;;;;4969827;28;20487;-86
2023/08/16 07:40:01;;;;;;;3.95;1.67;;;18.30;99.90;;;;;;4969686;28;20043;-84
2023/08/16 07:42:33;;;;;;;2.97;1.60;;;18.30;99.90;;;;;;4970603;28;20039;-88
2023/08/16 07:45:00;;;;;;;5.50;1.70;;;18.40;99.90;;;;;;4966713;28;20047;-86
2023/08/16 07:47:27;;;;;;;3.08;1.80;;;18.50;99.90;;;;;;4965570;28;20043;-87
2023/08/16 07:49:56;;;;;;;3.70;1.90;;;18.50;99.90;;;;;;4953917;28;20047;-89
2023/08/16 07:52:22;;;;;;;6.40;1.90;;;18.60;99.90;;;;;;4966944;28;20049;-86
2023/08/16 07:54:48;;;;;;;2.72;1.30;;;18.70;99.90;;;;;;4953379;28;20410;-87
2023/08/16 07:57:13;;;;;;;5.25;1.80;;;18.70;99.90;;;;;;4969021;28;20058;-88
2023/08/16 07:59:42;;;;;;;7.13;1.92;;;18.80;99.90;;;;;;4964801;28;20105;-87
2023/08/16 08:02:08;;;;;;;3.10;1.85;;;18.90;99.90;;;;;;4968348;28;20105;-87
2023/08/16 08:04:34;;;;;;;4.20;2.00;;;18.90;99.90;;;;;;4969811;28;20042;-88
2023/08/16 08:07:02;;;;;;;4.72;2.10;;;19.00;99.90;;;;;;4959504;28;20130;-85
2023/08/16 08:09:28;;;;;;;4.13;1.65;;;19.00;99.90;;;;;;4967099;28;20039;-86
2023/08/16 08:11:54;;;;;;;3.25;1.55;;;19.10;99.90;;;;;;4968713;28;20411;-86
2023/08/16 08:14:20;;;;;;;4.60;1.70;;;19.10;99.90;;;;;;4967579;28;20148;-86
2023/08/16 08:16:46;;;;;;;4.00;1.70;;;19.20;99.90;;;;;;4950734;28;20077;-86
2023/08/16 08:19:11;;;;;;;8.35;2.10;;;19.20;99.90;;;;;;4966554;28;20503;-86
2023/08/16 08:21:37;;;;;;;3.83;1.90;;;19.30;99.90;;;;;;4966433;28;20655;-86
2023/08/16 08:24:03;;;;;;;2.97;1.60;;;19.40;99.90;;;;;;4965399;28;20047;-85
2023/08/16 08:26:31;;;;;;;3.55;1.90;;;19.40;99.90;;;;;;4951019;28;20046;-86
2023/08/16 08:29:00;;;;;;;5.68;2.03;;;19.50;99.90;;;;;;4943869;28;20076;-85
2023/08/16 08:31:26;;;;;;;3.95;2.20;;;19.60;99.90;;;;;;4950384;28;20046;-85
2023/08/16 08:33:55;;;;;;;4.97;1.80;;;19.70;99.90;;;;;;4950379;28;20051;-85
2023/08/16 08:36:30;;;;;;;2.70;1.58;;;19.80;99.90;;;;;;4949620;28;20053;-86
2023/08/16 08:38:55;;;;;;;5.57;2.60;;;19.90;99.90;;;;;;4967701;28;20108;-85
2023/08/16 08:41:23;;;;;;;3.63;1.77;;;20.00;99.90;;;;;;4966835;28;20046;-85
2023/08/16 08:43:50;;;;;;;3.83;2.10;;;20.00;99.90;;;;;;4964948;28;21621;-85
2023/08/16 08:46:16;;;;;;;3.97;2.05;;;20.10;99.90;;;;;;4964085;28;20410;-85
2023/08/16 08:48:42;;;;;;;4.15;1.45;;;20.20;99.90;;;;;;4951338;28;20130;-85
2023/08/16 08:51:08;;;;;;;1.70;1.23;;;20.30;99.90;;;;;;4969873;28;20511;-85
2023/08/16 08:53:34;;;;;;;2.30;1.30;;;20.30;99.90;;;;;;4966953;28;20529;-85
2023/08/16 08:56:07;;;;;;;3.80;1.30;;;20.40;99.90;;;;;;4961392;28;20054;-85
2023/08/16 08:58:33;;;;;;;3.22;1.40;;;20.40;99.90;;;;;;4967993;28;20521;-88
2023/08/16 09:01:00;;;;;;;3.15;1.23;;;20.40;99.90;;;;;;4963215;28;20034;-86
2023/08/16 09:03:29;;;;;;;2.38;1.50;;;20.50;99.90;;;;;;4964466;28;20050;-85
2023/08/16 09:05:57;;;;;;;6.32;2.13;;;20.50;99.90;;;;;;4951440;28;20053;-86
2023/08/16 09:08:23;;;;;;;4.00;1.25;;;20.60;99.90;;;;;;4965726;28;20058;-86
2023/08/16 09:10:50;;;;;;;5.22;1.40;;;20.70;99.90;;;;;;4948856;28;20054;-86
2023/08/16 09:13:18;;;;;;;2.53;1.30;;;20.80;99.90;;;;;;4967287;28;20059;-86
2023/08/16 09:15:43;;;;;;;3.63;1.15;;;20.80;99.90;;;;;;4965698;28;20210;-86
2023/08/16 09:18:10;;;;;;;;;;;20.90;99.90;;;;;;4967501;28;20043;-86
2023/08/16 09:20:39;;;;;;;2.53;1.00;;;21.00;99.90;;;;;;4963904;28;19922;-86
2023/08/16 09:23:05;;;;;;;2.25;1.20;;;21.00;99.90;;;;;;4971561;28;20035;-86
2023/08/16 09:25:31;;;;;;;3.22;1.20;;;21.00;99.90;;;;;;4976958;28;20612;-86
2023/08/16 09:27:57;;;;;;;3.67;1.63;;;21.10;99.90;;;;;;4964284;28;20514;-87
2023/08/16 09:30:28;;;;;;;;;;;21.20;99.90;;;;;;4951350;28;20133;-86
2023/08/16 09:32:55;;;;;;;4.22;1.10;;;21.30;99.90;;;;;;4966841;28;20008;-87
2023/08/16 09:35:29;;;;;;;3.67;1.20;;;21.40;99.90;;;;;;4967808;28;20049;-88
2023/08/16 09:38:02;;;;;;;3.78;0.93;;;21.50;99.90;;;;;;4977478;28;20045;-86
2023/08/16 09:40:27;;;;;;;4.53;1.17;;;21.50;99.90;;;;;;4961503;28;20105;-85
2023/08/16 09:43:02;;;;;;;;;;;21.50;99.90;;;;;;4965942;28;20589;-85
2023/08/16 09:45:37;;;;;;;5.22;1.38;;;21.50;99.90;;;;;;4954559;28;20429;-85
2023/08/16 09:48:08;;;;;;;1.50;0.85;;;21.60;99.90;;;;;;4969182;28;20046;-85
2023/08/16 09:50:39;;;;;;;2.70;1.23;;;21.70;99.90;;;;;;4965666;28;20450;-87
2023/08/16 09:53:05;;;;;;;3.38;1.13;;;21.90;99.90;;;;;;4949609;28;20043;-86
2023/08/16 09:55:32;;;;;;;;;;;22.00;99.90;;;;;;4946465;28;20031;-86
2023/08/16 09:57:59;;;;;;;3.58;1.15;;;22.10;99.90;;;;;;4951156;28;19964;-86
2023/08/16 10:00:34;;;;;;;1.60;0.88;;;22.10;99.90;;;;;;4975504;28;20043;-86
2023/08/16 10:03:04;;;;;;;3.45;1.40;;;22.20;99.90;;;;;;4957817;28;20475;-86
2023/08/16 10:05:30;;;;;;;2.17;0.88;;;22.20;99.90;;;;;;4946488;28;20506;-87
2023/08/16 10:08:05;;;;;;;;;;;22.30;99.90;;;;;;4964782;28;20051;-87
2023/08/16 10:10:39;;;;;;;3.47;0.82;;;22.40;99.90;;;;;;4950714;28;20409;-88
2023/08/16 10:13:07;;;;;;;1.73;0.82;;;22.50;99.90;;;;;;4964741;28;20166;-87
2023/08/16 10:15:38;;;;;;;2.17;0.70;;;22.50;99.90;;;;;;4967509;28;20035;-87
2023/08/16 10:18:09;;;;;;;2.63;1.10;;;22.40;99.90;;;;;;4966009;28;20092;-88
2023/08/16 10:20:36;;;;;;;3.28;1.23;;;22.30;99.90;;;;;;4966470;28;20197;-86
2023/08/16 10:23:07;;;;;;;3.47;1.02;;;22.20;99.90;;;;;;4964918;28;20066;-86
2023/08/16 10:25:46;;;;;;;2.63;0.95;;;22.10;99.90;;;;;;4954224;28;20522;-86
2023/08/16 10:28:16;;;;;;;2.90;0.80;;;22.10;99.90;;;;;;4951135;28;20506;-87
2023/08/16 10:31:00;;;;;;;2.90;1.10;;;22.20;99.90;;;;;;4967004;28;20079;-88
2023/08/16 10:33:36;;;;;;;1.88;0.80;;;22.30;99.90;;;;;;4943967;28;20047;-86
2023/08/16 10:36:03;;;;;;;2.30;1.03;;;22.30;99.90;;;;;;4965253;28;20049;-87
2023/08/16 10:38:41;;;;;;;2.15;0.93;;;22.20;99.90;;;;;;4950187;28;20126;-87
2023/08/16 10:41:17;;;;;;;2.08;0.90;;;22.20;99.90;;;;;;4945982;28;20113;-87
2023/08/16 10:44:01;;;;;;;4.07;1.20;;;22.30;99.90;;;;;;4949441;28;20038;-85
2023/08/16 10:46:31;;;;;;;1.42;0.88;;;22.30;99.90;;;;;;4961425;28;20411;-87
2023/08/16 10:49:14;;;;;;;3.50;1.35;;;22.30;99.90;;;;;;4971771;28;20081;-85
2023/08/16 10:51:51;;;;;;;2.80;1.17;;;22.30;99.90;;;;;;4967537;28;20035;-87
2023/08/16 10:54:34;;;;;;;3.13;1.20;;;22.40;99.90;;;;;;4966856;28;20107;-87
2023/08/16 10:57:08;;;;;;;3.22;1.10;;;22.40;99.90;;;;;;4965400;28;20049;-87
2023/08/16 10:59:41;;;;;;;3.35;1.40;;;22.30;99.90;;;;;;4965572;28;20039;-87
2023/08/16 11:02:14;;;;;;;3.30;0.98;;;22.40;99.90;;;;;;4953570;28;20054;-88
2023/08/16 11:04:42;;;;;;;2.92;0.77;;;22.60;99.90;;;;;;4967612;28;20042;-87
2023/08/16 11:07:15;;;;;;;1.13;0.60;;;22.80;99.90;;;;;;4970613;28;20126;-87
2023/08/16 11:09:41;;;;;;;5.85;0.80;;;22.90;99.90;;;;;;4966691;28;20046;-87
2023/08/16 11:12:14;;;;;;;;;;;23.10;99.90;;;;;;4952699;28;20410;-87
2023/08/16 11:14:46;;;;;;;1.20;0.75;;;23.30;99.90;;;;;;4957159;28;20348;-87
2023/08/16 11:17:20;;;;;;;1.75;0.70;;;23.50;99.90;;;;;;4953873;28;20042;-86
2023/08/16 11:19:53;;;;;;;2.45;0.63;;;23.70;99.90;;;;;;4952723;28;20039;-88
2023/08/16 11:22:22;;;;;;;2.90;0.98;;;23.90;99.90;;;;;;4953297;28;20133;-87
2023/08/16 11:24:52;;;;;;;1.52;0.80;;;24.00;99.90;;;;;;4967945;28;20522;-87
2023/08/16 11:27:23;;;;;;;3.75;0.93;;;24.10;99.90;;;;;;4951637;28;20049;-87
2023/08/16 11:29:56;;;;;;;2.53;1.13;;;24.40;99.90;;;;;;4973752;28;20035;-88
2023/08/16 11:32:36;;;;;;;1.00;0.70;;;24.60;99.90;;;;;;4953939;28;20134;-88
2023/08/16 11:35:08;;;;;;;1.80;0.52;;;24.70;99.90;;;;;;4968521;28;20137;-84
2023/08/16 11:37:41;;;;;;;1.60;0.60;;;24.90;99.90;;;;;;4964771;28;20042;-86
2023/08/16 11:40:12;;;;;;;1.95;0.82;;;24.90;99.90;;;;;;4951903;28;20402;-86
2023/08/16 11:42:45;;;;;;;1.23;0.80;;;25.00;99.90;;;;;;4950459;28;20122;-87
2023/08/16 11:45:23;;;;;;;3.70;0.70;;;25.10;99.90;;;;;;4968443;28;20282;-86
2023/08/16 11:48:03;;;;;;;2.78;0.90;;;25.20;99.90;;;;;;4970681;28;20047;-87
2023/08/16 11:50:29;;;;;;;2.28;0.80;;;25.40;99.90;;;;;;4972769;28;20047;-87
2023/08/16 11:53:10;;;;;;;2.50;0.70;;;25.40;99.90;;;;;;4947505;28;20039;-86
2023/08/16 11:55:36;;;;;;;1.30;0.80;;;25.50;99.90;;;;;;4948413;28;20042;-86
2023/08/16 11:58:05;;;;;;;1.38;0.70;;;25.50;99.90;;;;;;4953506;28;20064;-85
2023/08/16 12:00:31;;;;;;;1.05;0.45;;;25.50;99.90;;;;;;4958766;28;20046;-87
2023/08/16 12:02:57;;;;;;;3.28;0.50;;;25.60;99.90;;;;;;4953645;28;20035;-87
2023/08/16 12:05:32;;;;;;;3.17;0.82;;;25.70;99.90;;;;;;4969987;28;20372;-86
2023/08/16 12:08:02;;;;;;;1.85;0.63;;;25.80;99.90;;;;;;4972395;28;20129;-87
2023/08/16 12:10:28;;;;;;;3.13;0.60;;;25.90;99.90;;;;;;4968708;28;20471;-88
2023/08/16 12:12:55;;;;;;;3.28;0.90;;;26.00;99.90;;;;;;4953201;28;20142;-87
2023/08/16 12:15:26;;;;;;;1.38;0.63;;;26.00;99.90;;;;;;4970729;28;20161;-87
2023/08/16 12:17:55;;;;;;;1.13;0.40;;;26.00;99.90;;;;;;4967547;28;20035;-88
2023/08/16 12:20:25;;;;;;;1.15;0.60;;;26.10;99.90;;;;;;4953210;28;20053;-87
2023/08/16 12:22:52;;;;;;;1.38;0.60;;;26.30;99.90;;;;;;4968588;28;20483;-87
2023/08/16 12:25:18;;;;;;;1.48;0.40;;;26.40;99.90;;;;;;4962771;28;20069;-87
2023/08/16 12:27:44;;;;;;;1.48;0.65;;;26.50;99.90;;;;;;4955134;28;20050;-87
2023/08/16 12:30:10;;;;;;;3.15;0.57;;;26.40;99.90;;;;;;4979836;28;20110;-87
2023/08/16 12:32:35;;;;;;;2.65;0.93;;;26.30;99.90;;;;;;4956246;28;20076;-87
2023/08/16 12:35:01;;;;;;;1.30;0.50;;;26.40;99.90;;;;;;4972358;28;20038;-85
2023/08/16 12:37:30;;;;;;;2.10;0.52;;;26.50;99.90;;;;;;4974762;28;20042;-87
2023/08/16 12:39:56;;;;;;;1.80;0.60;;;26.50;99.90;;;;;;4955820;28;20082;-86
2023/08/16 12:42:24;;;;;;;1.48;0.57;;;26.50;99.90;;;;;;4953740;28;20082;-86
2023/08/16 12:44:50;;;;;;;1.75;0.50;;;26.40;99.90;;;;;;4971655;28;20521;-87
2023/08/16 12:47:21;;;;;;;1.08;0.70;;;26.40;99.90;;;;;;4954848;28;20042;-87
2023/08/16 12:49:47;;;;;;;0.88;0.52;;;26.50;99.90;;;;;;4959580;28;20038;-85
2023/08/16 12:52:15;;;;;;;2.38;0.60;;;26.60;99.90;;;;;;4959541;28;20038;-87
2023/08/16 12:54:46;;;;;;;5.00;0.80;;;26.70;99.90;;;;;;4973888;28;20046;-86
2023/08/16 12:57:12;;;;;;;2.33;0.50;;;26.90;99.90;;;;;;4967248;28;20537;-87